Time;durP1;ratioP1;P1;durP2;ratioP2;P2;SDS_P1;SDS_P2;PMS_P1;PMS_P2;Temp;Humidity;BMP_temperature;BMP_pressure;BME280_temperature;BME280_humidity;BME280_pressure;Samples;Min_cycle;Max_cycle;Signal;HPM_P1;HPM_P2
2021/03/26 00:00:18;;;;;;;165.70;83.38;;;3.80;89.30;;;;;;5135269;27;20394;-73
2021/03/26 00:02:44;;;;;;;175.25;87.15;;;3.70;89.50;;;;;;5133604;27;20024;-72
2021/03/26 00:05:17;;;;;;;239.88;112.47;;;3.60;90.60;;;;;;5135194;27;20028;-73
2021/03/26 00:07:43;;;;;;;266.80;124.68;;;3.40;90.90;;;;;;5135228;27;20490;-72
2021/03/26 00:10:12;;;;;;;286.02;134.15;;;3.30;91.60;;;;;;5135446;27;20055;-72
2021/03/26 00:12:38;;;;;;;301.23;137.00;;;3.30;91.30;;;;;;5133728;27;20035;-73
2021/03/26 00:15:06;;;;;;;392.05;210.65;;;3.30;91.90;;;;;;5135137;27;20027;-73
2021/03/26 00:17:31;;;;;;;355.25;171.85;;;3.20;91.70;;;;;;5133630;27;20027;-72
2021/03/26 00:19:59;;;;;;;348.75;156.10;;;3.20;92.00;;;;;;5133621;27;20451;-72
2021/03/26 00:22:25;;;;;;;327.00;150.93;;;3.20;93.30;;;;;;5133513;27;20031;-71
2021/03/26 00:24:51;;;;;;;285.08;133.82;;;3.10;93.40;;;;;;5134915;27;20134;-72
2021/03/26 00:27:17;;;;;;;257.08;128.02;;;3.10;95.00;;;;;;5133513;27;20110;-72
2021/03/26 00:29:43;;;;;;;224.35;110.07;;;3.10;94.80;;;;;;5134845;27;20059;-73
2021/03/26 00:32:12;;;;;;;209.35;109.40;;;3.10;95.60;;;;;;5133419;27;20457;-73
2021/03/26 00:34:38;;;;;;;190.00;95.60;;;3.10;95.30;;;;;;5134695;27;20076;-72
2021/03/26 00:37:04;;;;;;;189.95;99.43;;;3.10;95.60;;;;;;5134957;27;20030;-72
2021/03/26 00:39:30;;;;;;;164.35;85.18;;;3.10;95.90;;;;;;5134669;27;20076;-71
2021/03/26 00:41:56;;;;;;;162.48;83.35;;;3.10;96.00;;;;;;5133223;27;20409;-71
2021/03/26 00:44:22;;;;;;;162.07;82.68;;;3.10;96.10;;;;;;5134209;27;20034;-71
2021/03/26 00:46:47;;;;;;;140.65;74.03;;;3.20;95.10;;;;;;5134200;27;20456;-71
2021/03/26 00:49:13;;;;;;;148.48;74.78;;;3.20;94.80;;;;;;5133244;27;20030;-71
2021/03/26 00:51:40;;;;;;;126.25;62.97;;;3.20;94.50;;;;;;5134447;27;20031;-71
2021/03/26 00:54:07;;;;;;;115.80;60.80;;;3.30;94.70;;;;;;5133149;27;20069;-72
2021/03/26 00:56:33;;;;;;;106.00;54.97;;;3.30;94.40;;;;;;5134679;27;20023;-71
2021/03/26 00:59:00;;;;;;;111.45;56.95;;;3.30;94.10;;;;;;5134373;27;20030;-71
2021/03/26 01:01:26;;;;;;;107.63;55.60;;;3.20;94.00;;;;;;5134282;27;20059;-71
2021/03/26 01:03:52;;;;;;;118.70;60.28;;;3.30;94.80;;;;;;5133864;27;20123;-71
2021/03/26 01:06:18;;;;;;;115.28;58.03;;;3.30;93.80;;;;;;5134180;27;20031;-71
2021/03/26 01:08:44;;;;;;;114.72;57.55;;;3.30;93.90;;;;;;5132653;27;20031;-71
2021/03/26 01:11:20;;;;;;;118.13;60.53;;;3.30;94.30;;;;;;5132828;27;20020;-71
2021/03/26 01:13:47;;;;;;;123.20;60.97;;;3.30;93.90;;;;;;5134188;27;20065;-71
2021/03/26 01:16:15;;;;;;;128.25;61.10;;;3.30;93.80;;;;;;5132802;27;20024;-71
2021/03/26 01:18:43;;;;;;;105.45;52.17;;;3.30;94.60;;;;;;5134124;27;20137;-71
2021/03/26 01:21:13;;;;;;;103.80;52.40;;;3.30;93.40;;;;;;5133067;27;20023;-71
2021/03/26 01:23:41;;;;;;;106.18;52.78;;;3.30;93.50;;;;;;5154583;27;20091;-71
2021/03/26 01:26:07;;;;;;;129.77;65.15;;;3.30;93.90;;;;;;5154655;27;20047;-71
2021/03/26 01:28:33;;;;;;;106.93;54.90;;;3.30;93.40;;;;;;5154481;27;20091;-71
2021/03/26 01:31:00;;;;;;;109.93;54.70;;;3.20;94.10;;;;;;5154641;27;20375;-71
2021/03/26 01:33:26;;;;;;;109.97;54.22;;;3.20;94.60;;;;;;5154590;27;20486;-71
2021/03/26 01:35:53;;;;;;;107.45;55.33;;;3.20;94.50;;;;;;5154601;27;20054;-70
2021/03/26 01:38:19;;;;;;;113.32;57.20;;;3.20;94.00;;;;;;5154617;27;20051;-70
2021/03/26 01:40:52;;;;;;;102.82;51.65;;;3.20;93.50;;;;;;5154845;27;20061;-70
2021/03/26 01:43:29;;;;;;;118.75;63.38;;;3.20;94.60;;;;;;5154246;27;20138;-70
2021/03/26 01:45:55;;;;;;;146.50;74.22;;;3.20;93.10;;;;;;5154550;27;20478;-70
2021/03/26 01:48:33;;;;;;;128.15;65.45;;;3.10;93.00;;;;;;5154525;27;20539;-70
2021/03/26 01:51:04;;;;;;;129.80;65.03;;;3.00;92.70;;;;;;5154627;27;20471;-70
2021/03/26 01:53:29;;;;;;;135.23;64.47;;;2.90;92.80;;;;;;5154480;27;20030;-71
2021/03/26 01:55:58;;;;;;;134.80;68.05;;;2.80;92.90;;;;;;5135778;27;20031;-71
2021/03/26 01:58:28;;;;;;;145.40;74.30;;;2.80;92.90;;;;;;5135805;27;20351;-71
2021/03/26 02:00:57;;;;;;;137.32;72.35;;;2.80;93.10;;;;;;5154373;27;20015;-72
2021/03/26 02:03:28;;;;;;;147.40;75.00;;;2.70;93.30;;;;;;5135638;27;20458;-69
2021/03/26 02:05:57;;;;;;;153.10;75.97;;;2.70;93.10;;;;;;5154642;27;20031;-69
2021/03/26 02:08:27;;;;;;;148.88;75.22;;;2.70;93.60;;;;;;5135503;27;20026;-70
2021/03/26 02:10:54;;;;;;;146.43;74.90;;;2.50;93.90;;;;;;5135751;27;20507;-69
2021/03/26 02:13:33;;;;;;;166.32;82.43;;;2.40;93.70;;;;;;5154255;27;20037;-69
2021/03/26 02:16:00;;;;;;;161.27;79.47;;;2.10;93.40;;;;;;5155856;27;20389;-70
2021/03/26 02:18:29;;;;;;;163.77;77.85;;;2.00;93.70;;;;;;5139452;27;20030;-70
2021/03/26 02:21:04;;;;;;;172.68;82.82;;;2.00;94.30;;;;;;5158050;27;20420;-69
2021/03/26 02:23:30;;;;;;;172.30;87.20;;;1.90;94.80;;;;;;5116926;28;20101;-70
2021/03/26 02:25:59;;;;;;;169.87;81.43;;;1.80;95.10;;;;;;5116694;28;20058;-70
2021/03/26 02:28:26;;;;;;;169.40;81.33;;;1.80;95.60;;;;;;5116688;28;20050;-69
2021/03/26 02:30:55;;;;;;;172.37;83.23;;;1.80;96.10;;;;;;5116543;28;20033;-70
2021/03/26 02:33:24;;;;;;;164.53;82.27;;;1.80;95.80;;;;;;5115187;28;20069;-70
2021/03/26 02:35:51;;;;;;;181.83;85.77;;;1.80;96.00;;;;;;5116421;28;20464;-69
2021/03/26 02:38:17;;;;;;;158.27;77.63;;;1.80;96.00;;;;;;5115141;28;20373;-69
2021/03/26 02:41:30;;;;;;;163.30;77.90;;;1.80;95.70;;;;;;5115186;28;20096;-70
2021/03/26 02:44:14;;;;;;;148.17;74.17;;;1.80;95.60;;;;;;5033128;28;20033;-72
2021/03/26 02:47:19;;;;;;;183.20;84.93;;;1.70;95.90;;;;;;5033321;28;20029;-72
2021/03/26 02:49:55;;;;;;;144.93;69.97;;;1.70;96.40;;;;;;5025097;28;20429;-73
2021/03/26 02:52:27;;;;;;;140.50;69.00;;;1.70;95.40;;;;;;5033075;28;20033;-73
2021/03/26 02:55:00;;;;;;;151.70;73.27;;;1.80;94.70;;;;;;5033360;28;20490;-73
2021/03/26 02:57:33;;;;;;;164.63;79.17;;;1.70;95.00;;;;;;5033072;28;20065;-73
2021/03/26 03:00:23;;;;;;;156.50;76.00;;;1.60;96.00;;;;;;5016366;28;20149;-73
2021/03/26 03:02:50;;;;;;;153.07;73.40;;;1.60;95.60;;;;;;5032857;28;20103;-73
2021/03/26 03:05:32;;;;;;;137.70;70.83;;;1.70;94.60;;;;;;5032925;28;20449;-73
2021/03/26 03:08:08;;;;;;;149.93;70.88;;;1.80;94.90;;;;;;5032887;28;20037;-73
2021/03/26 03:10:52;;;;;;;147.37;69.40;;;1.80;94.20;;;;;;5016219;28;20083;-73
2021/03/26 03:13:25;;;;;;;137.07;70.05;;;1.80;93.80;;;;;;5032759;28;20125;-73
2021/03/26 03:16:04;;;;;;;130.38;65.97;;;1.90;93.60;;;;;;5114216;28;20529;-72
2021/03/26 03:18:36;;;;;;;122.33;62.03;;;1.90;93.20;;;;;;5114422;28;20050;-71
2021/03/26 03:21:05;;;;;;;119.40;61.20;;;1.90;93.40;;;;;;5115676;27;20027;-71
2021/03/26 03:23:39;;;;;;;117.82;60.90;;;1.90;93.10;;;;;;5156758;27;20042;-70
2021/03/26 03:26:19;;;;;;;115.30;60.57;;;1.80;93.10;;;;;;5156584;27;20084;-71
2021/03/26 03:28:59;;;;;;;141.00;65.97;;;1.80;93.90;;;;;;5138084;27;20018;-70
2021/03/26 03:31:35;;;;;;;133.50;64.50;;;1.90;94.30;;;;;;5138090;27;20055;-71
2021/03/26 03:34:19;;;;;;;129.27;66.10;;;1.90;94.00;;;;;;5156672;27;20026;-70
2021/03/26 03:36:56;;;;;;;140.57;64.63;;;1.80;94.90;;;;;;5137597;27;20063;-71
2021/03/26 03:39:31;;;;;;;129.67;65.43;;;1.80;95.20;;;;;;5156807;27;20082;-70
2021/03/26 03:42:07;;;;;;;129.70;65.33;;;1.70;95.10;;;;;;5137901;27;20043;-70
2021/03/26 03:44:37;;;;;;;129.13;66.13;;;1.70;95.00;;;;;;5137843;27;20030;-70
2021/03/26 03:47:21;;;;;;;139.27;67.00;;;1.60;94.90;;;;;;5156100;27;20076;-71
2021/03/26 03:50:05;;;;;;;137.20;67.67;;;1.50;95.00;;;;;;5137961;27;20060;-71
2021/03/26 03:52:50;;;;;;;128.40;64.70;;;1.50;95.60;;;;;;5156293;27;20088;-71
2021/03/26 03:55:19;;;;;;;130.87;63.63;;;1.50;95.90;;;;;;5155974;27;20019;-71
2021/03/26 03:57:53;;;;;;;123.37;63.10;;;1.60;96.20;;;;;;5156135;27;20052;-70
2021/03/26 04:00:28;;;;;;;115.77;61.33;;;1.60;95.30;;;;;;5156348;27;20546;-70
2021/03/26 04:03:40;;;;;;;120.50;60.63;;;1.70;95.70;;;;;;5155973;27;20627;-72
2021/03/26 04:06:17;;;;;;;129.52;63.30;;;1.70;95.70;;;;;;5051637;28;20029;-72
2021/03/26 04:08:58;;;;;;;125.13;64.70;;;1.60;95.90;;;;;;5034817;28;20025;-72
2021/03/26 04:11:50;;;;;;;125.40;63.33;;;1.60;95.50;;;;;;5123726;27;20038;-72
2021/03/26 04:14:23;;;;;;;126.32;65.95;;;1.70;95.60;;;;;;5119214;27;20041;-73
2021/03/26 04:17:02;;;;;;;124.07;63.30;;;1.60;95.20;;;;;;5137129;27;20030;-73
2021/03/26 04:19:35;;;;;;;129.20;64.43;;;1.60;95.10;;;;;;5137105;27;20030;-73
2021/03/26 04:22:12;;;;;;;134.97;65.77;;;1.50;95.20;;;;;;5136755;27;20129;-73
2021/03/26 04:24:43;;;;;;;129.07;65.30;;;1.50;95.50;;;;;;5155639;27;20031;-72
2021/03/26 04:27:30;;;;;;;134.77;68.22;;;1.50;95.20;;;;;;5155789;27;20130;-73
2021/03/26 04:30:20;;;;;;;124.73;65.47;;;1.60;95.40;;;;;;5155557;27;20106;-73
2021/03/26 04:32:49;;;;;;;127.43;62.73;;;1.60;95.40;;;;;;5136891;27;20107;-73
2021/03/26 04:35:17;;;;;;;133.27;69.40;;;1.60;95.10;;;;;;5155411;27;20034;-73
2021/03/26 04:38:13;;;;;;;135.73;68.53;;;1.60;95.90;;;;;;5155027;27;20050;-73
2021/03/26 04:40:48;;;;;;;137.60;69.33;;;1.60;96.10;;;;;;5155314;27;20034;-73
2021/03/26 04:43:19;;;;;;;148.60;73.37;;;1.70;95.00;;;;;;5154942;27;20390;-73
2021/03/26 04:45:57;;;;;;;127.05;65.93;;;1.70;95.50;;;;;;5136763;27;20121;-73
2021/03/26 04:48:39;;;;;;;137.67;67.27;;;1.70;94.50;;;;;;5136594;27;20030;-73
2021/03/26 04:51:14;;;;;;;158.27;75.78;;;1.80;95.10;;;;;;5155216;27;20033;-73
2021/03/26 04:53:51;;;;;;;180.00;84.97;;;1.80;95.20;;;;;;5155131;27;20115;-72
2021/03/26 04:56:23;;;;;;;151.47;72.63;;;1.90;96.50;;;;;;5154853;27;20019;-73
2021/03/26 04:58:54;;;;;;;152.60;79.23;;;2.00;96.30;;;;;;5155073;27;20049;-73
2021/03/26 05:01:22;;;;;;;147.88;72.85;;;2.10;96.80;;;;;;5136445;27;20030;-72
2021/03/26 05:04:06;;;;;;;154.87;74.87;;;2.10;95.50;;;;;;5154886;27;20039;-73
2021/03/26 05:06:37;;;;;;;147.77;72.27;;;2.10;94.60;;;;;;5154959;27;20098;-74
2021/03/26 05:09:11;;;;;;;156.45;79.45;;;1.80;93.50;;;;;;5136392;27;20031;-72
2021/03/26 05:11:46;;;;;;;164.10;79.20;;;1.60;94.90;;;;;;5154889;27;20034;-73
2021/03/26 05:14:25;;;;;;;164.93;80.90;;;1.60;95.00;;;;;;5136220;27;20440;-72
2021/03/26 05:17:01;;;;;;;172.77;81.83;;;1.60;95.30;;;;;;5136212;27;20042;-72
2021/03/26 05:19:45;;;;;;;166.00;80.43;;;1.80;95.70;;;;;;5154513;27;20064;-72
2021/03/26 05:22:21;;;;;;;163.83;80.40;;;1.70;95.40;;;;;;5122350;28;20057;-73
2021/03/26 05:24:53;;;;;;;192.03;91.57;;;1.90;95.80;;;;;;5113469;28;20062;-73
2021/03/26 05:27:20;;;;;;;204.53;100.27;;;1.80;95.70;;;;;;5113466;28;20023;-73
2021/03/26 05:29:47;;;;;;;207.23;104.27;;;1.90;96.40;;;;;;5112059;28;20549;-72
2021/03/26 05:32:21;;;;;;;205.03;101.47;;;1.90;96.00;;;;;;5113556;28;20076;-72
2021/03/26 05:35:01;;;;;;;191.53;100.47;;;2.00;95.90;;;;;;5113519;28;20035;-72
2021/03/26 05:37:42;;;;;;;186.43;96.60;;;2.00;95.70;;;;;;5113435;28;20053;-72
2021/03/26 05:40:39;;;;;;;162.40;84.63;;;2.10;95.80;;;;;;5113650;28;20027;-72
2021/03/26 05:43:11;;;;;;;154.67;77.00;;;2.20;96.50;;;;;;5113307;28;20308;-73
2021/03/26 05:45:55;;;;;;;;;;;2.30;96.30;;;;;;5112542;28;20422;-71
2021/03/26 05:48:38;;;;;;;125.73;61.53;;;2.50;96.70;;;;;;5111900;28;20352;-72
2021/03/26 05:51:28;;;;;;;105.55;53.13;;;2.60;96.80;;;;;;5116788;28;20031;-73
2021/03/26 05:54:35;;;;;;;98.27;50.50;;;2.80;97.40;;;;;;5116203;28;20105;-74
2021/03/26 05:57:23;;;;;;;91.47;48.58;;;3.00;97.60;;;;;;5115953;28;20027;-73
2021/03/26 06:00:07;;;;;;;93.33;48.43;;;3.10;96.50;;;;;;5115773;28;20122;-72
2021/03/26 06:03:10;;;;;;;98.95;50.45;;;3.20;97.80;;;;;;5115756;28;20123;-73
2021/03/26 06:06:14;;;;;;;104.38;54.05;;;3.40;97.10;;;;;;5115686;28;20024;-72
2021/03/26 06:09:01;;;;;;;124.75;62.25;;;3.50;96.70;;;;;;5117006;28;20027;-72
2021/03/26 06:11:38;;;;;;;128.02;69.53;;;3.60;97.10;;;;;;5116411;28;20077;-71
2021/03/26 06:14:35;;;;;;;107.72;59.20;;;3.50;96.80;;;;;;5105459;28;20036;-72
2021/03/26 06:17:41;;;;;;;102.80;57.33;;;3.80;96.40;;;;;;5116876;28;20024;-72
2021/03/26 06:20:32;;;;;;;113.40;64.75;;;3.80;97.00;;;;;;5116853;28;20019;-72
2021/03/26 06:23:30;;;;;;;96.90;49.10;;;4.00;98.20;;;;;;5114933;28;20396;-72
2021/03/26 06:26:31;;;;;;;83.78;43.50;;;4.20;98.20;;;;;;5115369;28;20456;-71
2021/03/26 06:29:24;;;;;;;72.53;38.97;;;4.40;97.00;;;;;;5111151;28;20119;-70
2021/03/26 06:32:17;;;;;;;68.93;36.38;;;4.50;96.10;;;;;;5116344;28;20051;-71
2021/03/26 06:35:02;;;;;;;67.45;36.45;;;4.70;95.60;;;;;;5116510;28;20015;-72
2021/03/26 06:37:27;;;;;;;67.82;36.53;;;4.80;97.00;;;;;;5116371;28;20024;-71
2021/03/26 06:40:18;;;;;;;67.43;37.08;;;5.00;96.80;;;;;;5116375;28;20034;-72
2021/03/26 06:43:07;;;;;;;68.68;35.88;;;5.10;95.00;;;;;;5114865;28;20024;-72
2021/03/26 06:45:58;;;;;;;70.18;38.33;;;5.30;95.90;;;;;;5116298;28;20468;-73
2021/03/26 06:48:50;;;;;;;66.18;35.92;;;5.40;95.00;;;;;;5115884;28;20023;-72
2021/03/26 06:51:22;;;;;;;73.00;40.60;;;5.50;95.00;;;;;;5116237;28;20055;-72
2021/03/26 06:54:40;;;;;;;72.40;41.47;;;5.60;93.30;;;;;;5116126;28;20055;-72
2021/03/26 06:57:34;;;;;;;89.15;43.55;;;5.70;93.60;;;;;;5079450;28;20039;-72
2021/03/26 07:00:27;;;;;;;74.97;40.97;;;5.90;93.20;;;;;;5114673;28;20020;-72
2021/03/26 07:03:30;;;;;;;96.60;51.28;;;6.00;92.20;;;;;;5114029;28;20387;-72
2021/03/26 07:06:49;;;;;;;94.75;46.75;;;6.00;90.90;;;;;;5114502;28;20035;-71
2021/03/26 07:09:52;;;;;;;91.65;49.63;;;6.20;91.90;;;;;;5113501;28;20032;-74
2021/03/26 07:12:29;;;;;;;92.82;48.22;;;6.40;90.00;;;;;;5115697;28;20032;-74
2021/03/26 07:15:01;;;;;;;97.70;47.88;;;6.60;87.80;;;;;;5115784;28;20027;-71
2021/03/26 07:18:04;;;;;;;93.72;46.05;;;6.80;87.30;;;;;;5115670;28;20028;-72
2021/03/26 07:20:42;;;;;;;88.80;45.38;;;7.00;85.70;;;;;;5115581;28;20051;-72
2021/03/26 07:23:19;;;;;;;87.72;46.55;;;7.20;81.80;;;;;;5151229;27;20437;-74
2021/03/26 07:26:04;;;;;;;93.35;46.90;;;7.30;82.60;;;;;;5156814;27;20526;-72
2021/03/26 07:28:56;;;;;;;91.65;47.53;;;7.50;80.20;;;;;;5157003;27;20027;-72
2021/03/26 16:56:50;;;;;;;51.30;23.15;;;18.40;38.10;;;;;;5110684;27;20340;-71
2021/03/26 16:59:38;;;;;;;49.08;24.55;;;16.60;39.90;;;;;;5090301;28;20450;-72
2021/03/26 17:02:04;;;;;;;40.33;25.33;;;16.40;40.20;;;;;;5090379;28;20103;-72
2021/03/26 17:04:34;;;;;;;47.92;28.60;;;16.00;42.10;;;;;;5089954;28;20116;-72
2021/03/26 17:07:42;;;;;;;45.13;28.10;;;15.80;41.90;;;;;;5072046;28;20032;-71
2021/03/26 17:10:24;;;;;;;56.42;30.77;;;15.50;43.30;;;;;;5090273;28;20050;-73
2021/03/26 17:13:02;;;;;;;54.38;31.00;;;15.30;44.80;;;;;;5090146;28;20024;-73
2021/03/26 17:15:45;;;;;;;52.13;33.90;;;15.10;44.60;;;;;;5090152;28;20173;-71
2021/03/26 17:18:47;;;;;;;60.20;35.50;;;15.00;43.80;;;;;;5090278;28;20067;-72
2021/03/26 17:21:23;;;;;;;69.73;39.00;;;14.80;44.10;;;;;;4971988;28;20031;-72
2021/03/26 17:24:18;;;;;;;69.85;40.13;;;14.80;44.00;;;;;;5075621;28;20032;-72
2021/03/26 17:27:01;;;;;;;58.60;34.80;;;14.70;44.80;;;;;;5071798;28;20033;-71
2021/03/26 17:29:58;;;;;;;59.88;34.55;;;14.70;45.10;;;;;;5089459;28;20407;-74
2021/03/26 17:32:55;;;;;;;71.05;36.60;;;14.50;45.20;;;;;;5071711;28;20035;-73
2021/03/26 17:35:48;;;;;;;105.00;36.67;;;14.20;45.90;;;;;;5089713;28;20039;-74
2021/03/26 17:38:23;;;;;;;81.70;33.65;;;14.10;48.00;;;;;;5071163;28;20460;-73
2021/03/26 17:41:30;;;;;;;83.43;35.33;;;13.90;48.90;;;;;;5067508;28;20028;-72
2021/03/26 17:44:13;;;;;;;85.18;43.08;;;13.70;49.70;;;;;;5080012;28;20868;-73
2021/03/26 17:47:05;;;;;;;85.22;42.88;;;13.60;50.30;;;;;;5080035;28;20048;-73
2021/03/26 17:49:53;;;;;;;113.78;64.47;;;13.50;50.20;;;;;;5061411;28;20052;-73
2021/03/26 17:52:37;;;;;;;115.18;60.55;;;13.50;47.70;;;;;;5056598;28;20393;-73
2021/03/26 17:55:40;;;;;;;104.25;53.60;;;13.60;47.50;;;;;;5068736;28;20056;-70
2021/03/26 17:58:40;;;;;;;80.45;42.20;;;13.50;47.40;;;;;;5055551;28;20028;-71
2021/03/26 18:01:20;;;;;;;86.50;43.35;;;13.50;46.50;;;;;;5037876;28;20029;-72
2021/03/26 18:04:18;;;;;;;64.38;36.28;;;13.30;48.60;;;;;;5056019;28;20129;-72
2021/03/26 18:07:18;;;;;;;63.80;35.97;;;13.10;49.90;;;;;;5055755;28;20097;-72
2021/03/26 18:10:13;;;;;;;118.07;60.15;;;13.00;49.40;;;;;;5024320;28;20147;-70
2021/03/26 18:12:58;;;;;;;90.30;47.53;;;13.10;48.70;;;;;;5037698;28;20028;-70
2021/03/26 18:16:08;;;;;;;93.13;48.78;;;13.10;48.00;;;;;;5055584;28;20068;-72
2021/03/26 18:18:52;;;;;;;88.20;46.30;;;13.20;48.40;;;;;;4973886;28;20459;-73
2021/03/26 18:21:35;;;;;;;104.22;50.00;;;13.20;46.60;;;;;;4973912;28;20407;-73
2021/03/26 18:24:23;;;;;;;100.07;54.30;;;13.20;46.40;;;;;;4973955;28;20035;-71
2021/03/26 18:26:57;;;;;;;100.45;54.33;;;13.10;46.60;;;;;;4974165;28;20042;-70
2021/03/26 18:29:35;;;;;;;94.30;51.55;;;13.10;47.00;;;;;;4973811;28;20037;-71
2021/03/26 18:32:16;;;;;;;86.68;49.60;;;13.10;47.10;;;;;;4974093;28;20527;-71
2021/03/26 18:34:45;;;;;;;88.45;48.75;;;13.00;47.30;;;;;;4973950;28;20513;-71
2021/03/26 18:37:42;;;;;;;81.13;46.08;;;13.00;47.40;;;;;;4973904;28;20046;-71
2021/03/26 18:40:39;;;;;;;83.65;46.67;;;12.90;47.30;;;;;;4973876;28;20423;-72
2021/03/26 18:43:26;;;;;;;95.82;54.70;;;12.90;47.40;;;;;;4957067;28;20542;-72
2021/03/26 18:46:12;;;;;;;102.80;55.97;;;12.80;47.60;;;;;;4973644;28;20109;-72
2021/03/26 18:48:48;;;;;;;96.88;53.03;;;12.70;47.80;;;;;;4972858;28;20035;-71
2021/03/26 18:51:42;;;;;;;93.47;53.88;;;12.70;48.10;;;;;;4975443;28;20034;-72
2021/03/26 18:54:32;;;;;;;99.53;54.50;;;12.70;48.20;;;;;;4973001;28;20019;-72
2021/03/26 18:57:16;;;;;;;97.93;55.03;;;12.50;49.10;;;;;;5059995;28;20094;-74
2021/03/26 19:00:12;;;;;;;95.05;55.03;;;12.50;49.60;;;;;;5060521;28;20104;-71
2021/03/26 19:03:11;;;;;;;104.63;56.33;;;12.50;49.10;;;;;;5056013;28;20025;-72
2021/03/26 19:05:44;;;;;;;114.55;58.80;;;12.20;51.10;;;;;;5073776;28;20047;-72
2021/03/26 19:08:34;;;;;;;110.13;60.08;;;12.10;51.70;;;;;;5073211;28;20481;-72
2021/03/26 19:11:19;;;;;;;111.90;60.13;;;12.00;51.20;;;;;;5055812;28;20024;-73
2021/03/26 19:13:50;;;;;;;108.90;62.45;;;11.90;51.20;;;;;;5074091;28;20535;-74
2021/03/26 19:16:39;;;;;;;120.75;63.60;;;11.90;50.90;;;;;;5074248;28;20044;-72
2021/03/26 19:19:08;;;;;;;179.68;65.05;;;11.70;53.00;;;;;;5055341;28;20487;-71
2021/03/26 19:22:12;;;;;;;142.55;64.72;;;11.60;52.90;;;;;;5056344;28;20544;-73
2021/03/26 19:24:59;;;;;;;113.35;59.28;;;11.50;52.80;;;;;;5056073;28;20480;-73
2021/03/26 19:27:43;;;;;;;119.78;58.22;;;11.30;53.40;;;;;;5074078;28;20025;-71
2021/03/26 19:30:28;;;;;;;113.93;58.47;;;11.30;53.20;;;;;;5074225;28;20032;-73
2021/03/26 19:33:12;;;;;;;106.22;56.33;;;11.30;52.80;;;;;;5056031;28;20438;-71
2021/03/26 19:36:00;;;;;;;106.80;55.63;;;11.30;52.00;;;;;;5055621;28;20392;-72
2021/03/26 19:38:52;;;;;;;103.55;55.13;;;11.30;52.70;;;;;;5055933;28;20025;-72
2021/03/26 19:41:42;;;;;;;91.32;50.22;;;11.30;52.30;;;;;;5055845;28;20115;-73
2021/03/26 19:44:30;;;;;;;103.70;53.33;;;11.30;52.40;;;;;;5055655;28;20031;-72
2021/03/26 19:47:04;;;;;;;94.53;51.58;;;11.20;52.40;;;;;;5042393;28;20028;-71
2021/03/26 19:50:10;;;;;;;94.68;52.63;;;11.20;53.80;;;;;;5073688;28;20041;-72
2021/03/26 19:53:12;;;;;;;108.78;54.22;;;11.10;54.50;;;;;;5073707;28;20483;-72
2021/03/26 19:56:15;;;;;;;104.90;53.90;;;10.90;54.60;;;;;;4955926;28;20051;-71
2021/03/26 19:58:58;;;;;;;111.05;55.60;;;10.80;56.00;;;;;;5055571;28;20044;-72
2021/03/26 20:01:31;;;;;;;138.93;64.90;;;10.70;55.00;;;;;;5073532;28;20028;-74
2021/03/26 20:04:03;;;;;;;114.43;57.90;;;10.70;55.30;;;;;;5055454;28;20039;-76
2021/03/26 20:06:45;;;;;;;121.70;57.33;;;10.70;54.80;;;;;;5073518;28;20029;-75
2021/03/26 20:09:18;;;;;;;106.60;55.47;;;10.70;54.90;;;;;;5073509;28;20430;-72
2021/03/26 20:12:28;;;;;;;102.88;56.03;;;10.60;55.30;;;;;;5073408;28;20020;-73
2021/03/26 20:15:04;;;;;;;110.38;53.83;;;10.60;55.30;;;;;;5055149;28;20028;-71
2021/03/26 20:17:59;;;;;;;96.10;50.25;;;10.70;55.50;;;;;;5055410;28;20357;-71
2021/03/26 20:20:41;;;;;;;96.78;51.08;;;10.60;55.10;;;;;;5063353;28;20028;-74
2021/03/26 20:23:25;;;;;;;90.72;50.88;;;10.50;55.50;;;;;;5072882;28;20032;-73
2021/03/26 20:26:00;;;;;;;92.13;52.83;;;10.50;54.90;;;;;;5073210;28;20039;-73
2021/03/26 20:29:07;;;;;;;110.65;57.15;;;10.50;56.30;;;;;;5073229;28;20028;-73
2021/03/26 20:31:57;;;;;;;127.43;57.28;;;10.30;57.10;;;;;;5073274;28;20085;-73
2021/03/26 20:34:33;;;;;;;118.45;55.10;;;10.20;57.60;;;;;;5073281;28;20028;-75
2021/03/26 20:37:16;;;;;;;114.53;57.45;;;10.10;58.40;;;;;;5073234;28;20028;-72
2021/03/26 20:39:54;;;;;;;124.32;60.13;;;10.00;59.00;;;;;;5073065;28;20060;-74
2021/03/26 20:42:47;;;;;;;125.55;59.67;;;9.90;57.90;;;;;;5054383;28;20368;-75
2021/03/26 20:45:18;;;;;;;124.07;61.13;;;9.80;59.20;;;;;;5043342;28;20025;-74
2021/03/26 20:47:56;;;;;;;121.13;57.92;;;9.80;58.10;;;;;;5035123;28;20465;-74
2021/03/26 20:50:30;;;;;;;107.40;59.95;;;9.80;58.90;;;;;;5034946;28;20460;-74
2021/03/26 20:53:19;;;;;;;111.90;60.25;;;9.70;57.50;;;;;;5056955;28;20021;-74
2021/03/26 20:55:50;;;;;;;132.57;64.10;;;9.70;58.60;;;;;;5054151;28;20045;-74
2021/03/26 20:58:19;;;;;;;117.60;62.38;;;9.70;58.70;;;;;;5072996;28;20048;-74
2021/03/26 21:01:11;;;;;;;118.57;60.80;;;9.60;60.80;;;;;;5072979;28;20093;-73
2021/03/26 21:04:13;;;;;;;121.03;63.20;;;9.60;60.70;;;;;;5072705;28;20060;-71
2021/03/26 21:07:13;;;;;;;131.27;65.85;;;9.50;59.20;;;;;;5046335;28;20029;-72
2021/03/26 21:10:05;;;;;;;116.90;62.13;;;9.50;59.20;;;;;;5054577;28;20039;-72
2021/03/26 21:13:19;;;;;;;122.30;61.45;;;9.30;64.00;;;;;;5072697;28;20103;-73
2021/03/26 21:16:14;;;;;;;115.68;62.97;;;9.20;64.20;;;;;;5072824;28;20365;-72
2021/03/26 21:18:49;;;;;;;121.50;65.30;;;9.10;62.60;;;;;;5051665;28;20400;-72
2021/03/26 21:21:17;;;;;;;144.23;67.60;;;9.00;61.40;;;;;;5054682;28;20040;-74
2021/03/26 21:23:54;;;;;;;123.50;65.38;;;9.00;61.40;;;;;;5072738;28;20020;-72
2021/03/26 21:26:23;;;;;;;137.40;68.15;;;9.00;61.90;;;;;;5054764;28;20075;-73
2021/03/26 21:29:27;;;;;;;153.75;70.18;;;8.90;62.10;;;;;;5054271;28;20039;-74
2021/03/26 21:32:41;;;;;;;125.15;63.67;;;8.90;62.00;;;;;;5060460;28;20063;-73
2021/03/26 21:35:26;;;;;;;200.30;85.45;;;8.90;61.90;;;;;;4970721;28;20518;-72
2021/03/26 21:38:20;;;;;;;135.38;69.95;;;8.80;62.10;;;;;;5075451;28;20070;-72
2021/03/26 21:40:52;;;;;;;155.95;80.28;;;8.80;62.50;;;;;;5076051;28;20151;-72
2021/03/26 21:43:21;;;;;;;167.15;87.70;;;8.80;62.90;;;;;;5058042;28;20028;-72
2021/03/26 21:45:49;;;;;;;165.25;89.18;;;8.70;64.00;;;;;;5057825;28;20029;-72
2021/03/26 21:48:57;;;;;;;174.05;91.68;;;8.70;63.90;;;;;;5057679;28;20039;-74
2021/03/26 21:51:32;;;;;;;139.90;77.15;;;8.60;64.30;;;;;;4974266;28;20033;-74
2021/03/26 21:54:23;;;;;;;171.48;87.00;;;8.60;66.90;;;;;;5043620;28;20032;-74
2021/03/26 21:57:18;;;;;;;179.45;92.28;;;8.60;66.20;;;;;;5037799;28;20047;-72
2021/03/26 22:00:18;;;;;;;176.23;96.20;;;8.50;66.50;;;;;;5030637;28;20044;-73
2021/03/26 22:03:21;;;;;;;159.32;88.53;;;8.50;65.80;;;;;;5037898;28;20108;-73
2021/03/26 22:05:50;;;;;;;169.55;89.22;;;8.40;68.70;;;;;;5037685;28;20029;-73
2021/03/26 22:08:38;;;;;;;181.15;93.80;;;8.40;67.60;;;;;;5055671;28;20035;-74
2021/03/26 22:11:11;;;;;;;161.50;85.80;;;8.40;66.50;;;;;;5055565;28;20036;-75
2021/03/26 22:13:50;;;;;;;165.32;89.35;;;8.30;70.90;;;;;;5037698;28;20358;-72
2021/03/26 22:16:41;;;;;;;166.20;91.15;;;8.20;72.60;;;;;;5037479;28;20496;-73
2021/03/26 22:19:27;;;;;;;166.60;88.75;;;8.20;70.30;;;;;;5055251;28;20393;-73
2021/03/26 22:22:03;;;;;;;162.48;85.65;;;8.30;68.70;;;;;;5055112;28;20385;-75
2021/03/26 22:24:40;;;;;;;155.57;81.35;;;8.30;69.40;;;;;;5037391;28;20078;-74
2021/03/26 22:27:31;;;;;;;142.98;77.38;;;8.20;69.40;;;;;;5037490;28;20472;-74
2021/03/26 22:30:12;;;;;;;140.23;73.60;;;8.20;69.90;;;;;;5055253;28;20029;-73
2021/03/26 22:32:48;;;;;;;133.53;71.10;;;8.20;69.10;;;;;;5055304;28;20035;-73
2021/03/26 22:35:24;;;;;;;135.43;71.22;;;;;;;;;;5055141;28;20344;-74
2021/03/26 22:38:25;;;;;;;141.27;77.55;;;8.10;70.00;;;;;;5037197;28;20485;-74
2021/03/26 22:41:09;;;;;;;149.90;77.60;;;8.00;72.10;;;;;;5054838;28;20392;-72
2021/03/26 22:43:36;;;;;;;146.73;76.13;;;8.00;71.60;;;;;;5054891;28;20333;-72
2021/03/26 22:46:14;;;;;;;148.52;78.43;;;8.00;71.10;;;;;;5036931;28;20025;-75
2021/03/26 22:48:48;;;;;;;148.38;78.88;;;7.90;70.70;;;;;;5054876;28;20037;-75
2021/03/26 22:51:36;;;;;;;135.50;72.75;;;7.80;72.70;;;;;;5055113;28;20524;-75
2021/03/26 22:54:23;;;;;;;134.13;71.55;;;7.80;71.10;;;;;;5054735;28;20477;-75
2021/03/26 22:57:02;;;;;;;140.27;73.75;;;7.80;70.30;;;;;;5056218;28;20048;-75
2021/03/26 22:59:42;;;;;;;140.77;72.65;;;7.90;69.90;;;;;;5074966;28;20031;-75